aviador You're here:

KFLD Decoded Metar

FOND DU LAC in WI, USA
Report Time2017-06-29 06:53:00
UTC Time2017-06-29 07:18:32
Flight Rules mvfr MVFR
Wind240° at 11 Gusting to 18 kt
W.Decomp.*RWY 27: 9.9 kt HW 4.8 kt LCW
RWY 18: 4.8 kt HW 9.9 kt RCW
W.Rank240° ranks 11
Current wind is above 240° avg. (7.2)
Visibility9999 m
Phenomena:N/A
Clouds:Overcast 014 Hf
Expected CloudBase > 1,600 ft AGL from Temp-Dew spread
Ceiling1,400 ft
Temp21°C (ISA +8)
Dew Point17°C (78% RH)
AAT19.4°C
QNH1005 hPa
Density Alt2,201 ft
Elevation787 ft
Report Wrong Elevation
Raw Report
METAR KFLD 290653Z AUTO 24011G18KT 10SM OVC014 21/17 A2968 RMK AO2
SLP046 T02060167=

Extra information for KFLD:More info

Metar Taf Metar & Taf Last 4 Metars F.Rules Stats Wind Profile Meteogram Temp Stats Airport Information Weather charts Add Link Nearby VenuesMetar ALERT Operation Metar Decoded Social comments

AIRNAV info for KFLD